sensor_id;sensor_type;location;lat;lon;timestamp;temperature;humidity
20158;DHT22;10239;56.820;24.416;2024-01-16T00:00:46;-0.10;99.90
20158;DHT22;10239;56.820;24.416;2024-01-16T00:03:14;0.00;99.90
20158;DHT22;10239;56.820;24.416;2024-01-16T00:05:41;-0.10;99.90
20158;DHT22;10239;56.820;24.416;2024-01-16T00:08:10;-0.20;99.90
20158;DHT22;10239;56.820;24.416;2024-01-16T00:10:37;-0.20;99.90
20158;DHT22;10239;56.820;24.416;2024-01-16T00:13:05;-0.20;99.90
20158;DHT22;10239;56.820;24.416;2024-01-16T00:15:32;-0.30;99.90
20158;DHT22;10239;56.820;24.416;2024-01-16T00:18:00;-0.30;99.90
20158;DHT22;10239;56.820;24.416;2024-01-16T00:20:27;-0.40;99.90
20158;DHT22;10239;56.820;24.416;2024-01-16T00:22:55;-0.50;99.90
20158;DHT22;10239;56.820;24.416;2024-01-16T00:25:23;-0.50;99.90
20158;DHT22;10239;56.820;24.416;2024-01-16T00:27:51;-0.50;99.90
20158;DHT22;10239;56.820;24.416;2024-01-16T00:30:18;-0.50;99.90
20158;DHT22;10239;56.820;24.416;2024-01-16T00:32:46;-0.60;99.90
20158;DHT22;10239;56.820;24.416;2024-01-16T00:35:14;-0.70;99.90
20158;DHT22;10239;56.820;24.416;2024-01-16T00:37:42;-0.70;99.90
20158;DHT22;10239;56.820;24.416;2024-01-16T00:40:09;-0.80;99.90
20158;DHT22;10239;56.820;24.416;2024-01-16T00:42:37;-1.00;99.90
20158;DHT22;10239;56.820;24.416;2024-01-16T00:45:08;-1.00;99.90
20158;DHT22;10239;56.820;24.416;2024-01-16T00:47:36;-1.00;99.90
20158;DHT22;10239;56.820;24.416;2024-01-16T00:50:04;-1.00;99.90
20158;DHT22;10239;56.820;24.416;2024-01-16T00:52:32;-1.00;99.90
20158;DHT22;10239;56.820;24.416;2024-01-16T00:55:00;-1.10;99.90
20158;DHT22;10239;56.820;24.416;2024-01-16T00:57:27;-1.10;99.90
20158;DHT22;10239;56.820;24.416;2024-01-16T00:59:55;-1.10;99.90
20158;DHT22;10239;56.820;24.416;2024-01-16T01:02:22;-1.20;99.90
20158;DHT22;10239;56.820;24.416;2024-01-16T01:04:50;-1.10;99.90
20158;DHT22;10239;56.820;24.416;2024-01-16T01:07:18;-1.10;99.90
20158;DHT22;10239;56.820;24.416;2024-01-16T01:09:45;-1.20;99.90
20158;DHT22;10239;56.820;24.416;2024-01-16T01:12:13;-1.30;99.90
20158;DHT22;10239;56.820;24.416;2024-01-16T01:14:41;-1.30;99.90
20158;DHT22;10239;56.820;24.416;2024-01-16T01:17:08;-1.30;99.90
20158;DHT22;10239;56.820;24.416;2024-01-16T01:19:36;-1.40;99.90
20158;DHT22;10239;56.820;24.416;2024-01-16T01:22:04;-1.50;99.90
20158;DHT22;10239;56.820;24.416;2024-01-16T01:24:31;-1.50;99.90
20158;DHT22;10239;56.820;24.416;2024-01-16T01:26:59;-1.60;99.90
20158;DHT22;10239;56.820;24.416;2024-01-16T01:29:26;-1.50;99.90
20158;DHT22;10239;56.820;24.416;2024-01-16T01:31:54;-1.60;99.90
20158;DHT22;10239;56.820;24.416;2024-01-16T01:34:22;-1.60;99.90
20158;DHT22;10239;56.820;24.416;2024-01-16T01:36:49;-1.70;99.90
20158;DHT22;10239;56.820;24.416;2024-01-16T01:39:17;-1.70;99.90
20158;DHT22;10239;56.820;24.416;2024-01-16T01:41:45;-1.70;99.90
20158;DHT22;10239;56.820;24.416;2024-01-16T01:44:12;-1.90;99.90
20158;DHT22;10239;56.820;24.416;2024-01-16T01:46:44;-2.00;99.90
20158;DHT22;10239;56.820;24.416;2024-01-16T01:49:14;-2.00;99.90
20158;DHT22;10239;56.820;24.416;2024-01-16T01:51:43;-2.00;99.90
20158;DHT22;10239;56.820;24.416;2024-01-16T01:54:14;-2.00;99.90
20158;DHT22;10239;56.820;24.416;2024-01-16T01:56:44;-2.20;99.90
20158;DHT22;10239;56.820;24.416;2024-01-16T01:59:13;-2.20;99.90
20158;DHT22;10239;56.820;24.416;2024-01-16T02:01:42;-2.30;99.90
20158;DHT22;10239;56.820;24.416;2024-01-16T02:04:14;-2.20;99.90
20158;DHT22;10239;56.820;24.416;2024-01-16T02:06:43;-2.30;99.90
20158;DHT22;10239;56.820;24.416;2024-01-16T02:09:12;-2.40;99.90
20158;DHT22;10239;56.820;24.416;2024-01-16T02:11:44;-2.50;99.90
20158;DHT22;10239;56.820;24.416;2024-01-16T02:14:12;-2.60;99.90
20158;DHT22;10239;56.820;24.416;2024-01-16T02:16:40;-2.70;99.90
20158;DHT22;10239;56.820;24.416;2024-01-16T02:19:08;-2.70;99.90
20158;DHT22;10239;56.820;24.416;2024-01-16T02:21:41;-2.70;99.90
20158;DHT22;10239;56.820;24.416;2024-01-16T02:24:15;-2.70;99.90
20158;DHT22;10239;56.820;24.416;2024-01-16T02:26:44;-2.70;99.90
20158;DHT22;10239;56.820;24.416;2024-01-16T02:29:12;-2.90;99.90
20158;DHT22;10239;56.820;24.416;2024-01-16T02:31:40;-3.00;99.90
20158;DHT22;10239;56.820;24.416;2024-01-16T02:34:07;-3.10;99.90
20158;DHT22;10239;56.820;24.416;2024-01-16T02:36:36;-3.20;99.90
20158;DHT22;10239;56.820;24.416;2024-01-16T02:39:03;-3.20;99.90
20158;DHT22;10239;56.820;24.416;2024-01-16T02:41:33;-3.30;99.90
20158;DHT22;10239;56.820;24.416;2024-01-16T02:44:01;-3.30;99.90
20158;DHT22;10239;56.820;24.416;2024-01-16T02:46:29;-3.40;99.90
20158;DHT22;10239;56.820;24.416;2024-01-16T02:48:56;-3.50;99.90
20158;DHT22;10239;56.820;24.416;2024-01-16T02:51:24;-3.40;99.90
20158;DHT22;10239;56.820;24.416;2024-01-16T02:53:51;-3.40;99.90
20158;DHT22;10239;56.820;24.416;2024-01-16T02:56:19;-3.50;99.90
20158;DHT22;10239;56.820;24.416;2024-01-16T02:58:46;-3.60;99.90
20158;DHT22;10239;56.820;24.416;2024-01-16T03:01:14;-3.70;99.90
20158;DHT22;10239;56.820;24.416;2024-01-16T03:03:43;-3.60;99.90
20158;DHT22;10239;56.820;24.416;2024-01-16T03:06:22;-3.60;99.90
20158;DHT22;10239;56.820;24.416;2024-01-16T03:08:51;-3.70;99.90
20158;DHT22;10239;56.820;24.416;2024-01-16T03:11:18;-3.80;99.90
20158;DHT22;10239;56.820;24.416;2024-01-16T03:13:46;-3.80;99.90
20158;DHT22;10239;56.820;24.416;2024-01-16T03:16:16;-3.70;99.90
20158;DHT22;10239;56.820;24.416;2024-01-16T03:18:43;-3.70;99.90
20158;DHT22;10239;56.820;24.416;2024-01-16T03:21:13;-3.70;99.90
20158;DHT22;10239;56.820;24.416;2024-01-16T03:23:41;-3.70;99.90
20158;DHT22;10239;56.820;24.416;2024-01-16T03:26:13;-3.70;99.90
20158;DHT22;10239;56.820;24.416;2024-01-16T03:28:42;-3.70;99.90
20158;DHT22;10239;56.820;24.416;2024-01-16T03:31:09;-3.70;99.90
20158;DHT22;10239;56.820;24.416;2024-01-16T03:33:37;-3.60;99.90
20158;DHT22;10239;56.820;24.416;2024-01-16T03:36:10;-3.60;99.90
20158;DHT22;10239;56.820;24.416;2024-01-16T03:38:42;-3.60;99.90
20158;DHT22;10239;56.820;24.416;2024-01-16T03:41:13;-3.60;99.90
20158;DHT22;10239;56.820;24.416;2024-01-16T03:43:41;-3.60;99.90
20158;DHT22;10239;56.820;24.416;2024-01-16T03:46:11;-3.60;99.90
20158;DHT22;10239;56.820;24.416;2024-01-16T03:48:38;-3.60;99.90
20158;DHT22;10239;56.820;24.416;2024-01-16T03:51:06;-3.60;99.90
20158;DHT22;10239;56.820;24.416;2024-01-16T03:53:34;-3.60;99.90
20158;DHT22;10239;56.820;24.416;2024-01-16T03:56:01;-3.60;99.90
20158;DHT22;10239;56.820;24.416;2024-01-16T03:58:28;-3.60;99.90
20158;DHT22;10239;56.820;24.416;2024-01-16T04:00:56;-3.60;99.90
20158;DHT22;10239;56.820;24.416;2024-01-16T04:03:23;-3.60;99.90
20158;DHT22;10239;56.820;24.416;2024-01-16T04:05:51;-3.60;99.90
20158;DHT22;10239;56.820;24.416;2024-01-16T04:08:18;-3.60;99.90
20158;DHT22;10239;56.820;24.416;2024-01-16T04:10:46;-3.50;99.90
20158;DHT22;10239;56.820;24.416;2024-01-16T04:13:13;-3.50;99.90
20158;DHT22;10239;56.820;24.416;2024-01-16T04:15:42;-3.40;99.90
20158;DHT22;10239;56.820;24.416;2024-01-16T04:18:09;-3.40;99.90
20158;DHT22;10239;56.820;24.416;2024-01-16T04:20:37;-3.40;99.90
20158;DHT22;10239;56.820;24.416;2024-01-16T04:23:05;-3.40;99.90
20158;DHT22;10239;56.820;24.416;2024-01-16T04:25:32;-3.50;99.90
20158;DHT22;10239;56.820;24.416;2024-01-16T04:28:00;-3.50;99.90
20158;DHT22;10239;56.820;24.416;2024-01-16T04:30:29;-3.50;99.90
20158;DHT22;10239;56.820;24.416;2024-01-16T04:32:57;-3.50;99.90
20158;DHT22;10239;56.820;24.416;2024-01-16T04:35:25;-3.60;99.90
20158;DHT22;10239;56.820;24.416;2024-01-16T04:37:52;-3.60;99.90
20158;DHT22;10239;56.820;24.416;2024-01-16T04:40:20;-3.60;99.90
20158;DHT22;10239;56.820;24.416;2024-01-16T04:42:49;-3.60;99.90
20158;DHT22;10239;56.820;24.416;2024-01-16T04:45:16;-3.60;99.90
20158;DHT22;10239;56.820;24.416;2024-01-16T04:47:44;-3.60;99.90
20158;DHT22;10239;56.820;24.416;2024-01-16T04:50:11;-3.60;99.90
20158;DHT22;10239;56.820;24.416;2024-01-16T04:52:39;-3.60;99.90
20158;DHT22;10239;56.820;24.416;2024-01-16T04:55:07;-3.50;99.90
20158;DHT22;10239;56.820;24.416;2024-01-16T04:57:34;-3.50;99.90
20158;DHT22;10239;56.820;24.416;2024-01-16T05:00:03;-3.50;99.90
20158;DHT22;10239;56.820;24.416;2024-01-16T05:02:34;-3.60;99.90
20158;DHT22;10239;56.820;24.416;2024-01-16T05:05:05;-3.70;99.90
20158;DHT22;10239;56.820;24.416;2024-01-16T05:07:33;-3.60;99.90
20158;DHT22;10239;56.820;24.416;2024-01-16T05:10:02;-3.60;99.90
20158;DHT22;10239;56.820;24.416;2024-01-16T05:12:30;-3.60;99.90
20158;DHT22;10239;56.820;24.416;2024-01-16T05:14:58;-3.80;99.90
20158;DHT22;10239;56.820;24.416;2024-01-16T05:17:26;-3.80;99.90
20158;DHT22;10239;56.820;24.416;2024-01-16T05:19:53;-3.80;99.90
20158;DHT22;10239;56.820;24.416;2024-01-16T05:22:21;-3.70;99.90
20158;DHT22;10239;56.820;24.416;2024-01-16T05:24:49;-3.70;99.90
20158;DHT22;10239;56.820;24.416;2024-01-16T05:27:17;-3.70;99.90
20158;DHT22;10239;56.820;24.416;2024-01-16T05:29:44;-3.80;99.90
20158;DHT22;10239;56.820;24.416;2024-01-16T05:32:14;-3.70;99.90
20158;DHT22;10239;56.820;24.416;2024-01-16T05:34:41;-3.60;99.90
20158;DHT22;10239;56.820;24.416;2024-01-16T05:37:09;-3.70;99.90
20158;DHT22;10239;56.820;24.416;2024-01-16T05:39:37;-3.70;99.90
20158;DHT22;10239;56.820;24.416;2024-01-16T05:42:04;-3.90;99.90
20158;DHT22;10239;56.820;24.416;2024-01-16T05:44:32;-3.90;99.90
20158;DHT22;10239;56.820;24.416;2024-01-16T05:47:00;-3.90;99.90
20158;DHT22;10239;56.820;24.416;2024-01-16T05:49:28;-3.90;99.90
20158;DHT22;10239;56.820;24.416;2024-01-16T05:51:56;-3.90;99.90
20158;DHT22;10239;56.820;24.416;2024-01-16T05:54:23;-4.00;99.90
20158;DHT22;10239;56.820;24.416;2024-01-16T05:56:53;-3.90;99.90
20158;DHT22;10239;56.820;24.416;2024-01-16T05:59:20;-3.90;99.90
20158;DHT22;10239;56.820;24.416;2024-01-16T06:01:48;-4.00;99.90
20158;DHT22;10239;56.820;24.416;2024-01-16T06:04:16;-4.00;99.90
20158;DHT22;10239;56.820;24.416;2024-01-16T06:06:44;-4.10;99.90
20158;DHT22;10239;56.820;24.416;2024-01-16T06:09:15;-4.10;99.90
20158;DHT22;10239;56.820;24.416;2024-01-16T06:11:43;-4.20;99.90
20158;DHT22;10239;56.820;24.416;2024-01-16T06:14:11;-4.20;99.90
20158;DHT22;10239;56.820;24.416;2024-01-16T06:16:40;-4.20;99.90
20158;DHT22;10239;56.820;24.416;2024-01-16T06:19:07;-4.10;99.90
20158;DHT22;10239;56.820;24.416;2024-01-16T06:21:35;-4.10;99.90
20158;DHT22;10239;56.820;24.416;2024-01-16T06:24:03;-4.30;99.90
20158;DHT22;10239;56.820;24.416;2024-01-16T06:26:31;-4.10;99.90
20158;DHT22;10239;56.820;24.416;2024-01-16T06:28:59;-4.10;99.90
20158;DHT22;10239;56.820;24.416;2024-01-16T06:31:26;-4.20;99.90
20158;DHT22;10239;56.820;24.416;2024-01-16T06:33:54;-4.20;99.90
20158;DHT22;10239;56.820;24.416;2024-01-16T06:36:22;-4.20;99.90
20158;DHT22;10239;56.820;24.416;2024-01-16T06:38:49;-4.20;99.90
20158;DHT22;10239;56.820;24.416;2024-01-16T06:41:17;-4.20;99.90
20158;DHT22;10239;56.820;24.416;2024-01-16T06:43:45;-4.20;99.90
20158;DHT22;10239;56.820;24.416;2024-01-16T06:46:12;-4.30;99.90
20158;DHT22;10239;56.820;24.416;2024-01-16T06:48:40;-4.30;99.90
20158;DHT22;10239;56.820;24.416;2024-01-16T06:51:08;-4.30;99.90
20158;DHT22;10239;56.820;24.416;2024-01-16T06:53:37;-4.20;99.90
20158;DHT22;10239;56.820;24.416;2024-01-16T06:56:08;-4.30;99.90
20158;DHT22;10239;56.820;24.416;2024-01-16T06:58:36;-4.40;99.90
20158;DHT22;10239;56.820;24.416;2024-01-16T07:01:05;-4.40;99.90
20158;DHT22;10239;56.820;24.416;2024-01-16T07:03:33;-4.30;99.90
20158;DHT22;10239;56.820;24.416;2024-01-16T07:06:00;-4.40;99.90
20158;DHT22;10239;56.820;24.416;2024-01-16T07:08:28;-4.40;99.90
20158;DHT22;10239;56.820;24.416;2024-01-16T07:10:56;-4.30;99.90
20158;DHT22;10239;56.820;24.416;2024-01-16T07:13:24;-4.20;99.90
20158;DHT22;10239;56.820;24.416;2024-01-16T07:15:51;-4.30;99.90
20158;DHT22;10239;56.820;24.416;2024-01-16T07:18:19;-4.20;99.90
20158;DHT22;10239;56.820;24.416;2024-01-16T07:20:47;-4.30;99.90
20158;DHT22;10239;56.820;24.416;2024-01-16T07:23:15;-4.20;99.90
20158;DHT22;10239;56.820;24.416;2024-01-16T07:25:43;-4.30;99.90
20158;DHT22;10239;56.820;24.416;2024-01-16T07:28:10;-4.30;99.90
20158;DHT22;10239;56.820;24.416;2024-01-16T07:30:38;-4.30;99.90
20158;DHT22;10239;56.820;24.416;2024-01-16T07:33:05;-4.20;99.90
20158;DHT22;10239;56.820;24.416;2024-01-16T07:35:33;-4.20;99.90
20158;DHT22;10239;56.820;24.416;2024-01-16T07:38:01;-4.20;99.90
20158;DHT22;10239;56.820;24.416;2024-01-16T07:40:31;-4.30;99.90
20158;DHT22;10239;56.820;24.416;2024-01-16T07:42:59;-4.30;99.90
20158;DHT22;10239;56.820;24.416;2024-01-16T07:45:26;-4.30;99.90
20158;DHT22;10239;56.820;24.416;2024-01-16T07:47:54;-4.30;99.90
20158;DHT22;10239;56.820;24.416;2024-01-16T07:50:22;-4.20;99.90
20158;DHT22;10239;56.820;24.416;2024-01-16T07:52:50;-4.20;99.90
20158;DHT22;10239;56.820;24.416;2024-01-16T07:55:18;-4.10;99.90
20158;DHT22;10239;56.820;24.416;2024-01-16T07:57:49;-4.10;99.90
20158;DHT22;10239;56.820;24.416;2024-01-16T08:00:17;-4.10;99.90
20158;DHT22;10239;56.820;24.416;2024-01-16T08:02:45;-4.00;99.90
20158;DHT22;10239;56.820;24.416;2024-01-16T08:05:12;-3.90;99.90
20158;DHT22;10239;56.820;24.416;2024-01-16T08:07:42;-3.70;99.90
20158;DHT22;10239;56.820;24.416;2024-01-16T08:10:11;-3.70;99.90
20158;DHT22;10239;56.820;24.416;2024-01-16T08:12:39;-3.60;99.90
20158;DHT22;10239;56.820;24.416;2024-01-16T08:15:06;-3.70;99.90
20158;DHT22;10239;56.820;24.416;2024-01-16T08:17:35;-3.60;99.90
20158;DHT22;10239;56.820;24.416;2024-01-16T08:20:03;-3.60;99.90
20158;DHT22;10239;56.820;24.416;2024-01-16T08:22:30;-3.50;99.90
20158;DHT22;10239;56.820;24.416;2024-01-16T08:24:58;-3.50;99.90
20158;DHT22;10239;56.820;24.416;2024-01-16T08:27:26;-3.40;99.90
20158;DHT22;10239;56.820;24.416;2024-01-16T08:29:53;-3.40;99.90
20158;DHT22;10239;56.820;24.416;2024-01-16T08:32:21;-3.40;99.90
20158;DHT22;10239;56.820;24.416;2024-01-16T08:34:49;-3.50;99.90
20158;DHT22;10239;56.820;24.416;2024-01-16T08:37:17;-3.50;99.90
20158;DHT22;10239;56.820;24.416;2024-01-16T08:39:45;-3.50;99.90
20158;DHT22;10239;56.820;24.416;2024-01-16T08:42:12;-3.50;99.90
20158;DHT22;10239;56.820;24.416;2024-01-16T08:44:40;-3.40;99.90
20158;DHT22;10239;56.820;24.416;2024-01-16T08:47:07;-3.50;99.90
20158;DHT22;10239;56.820;24.416;2024-01-16T08:49:35;-3.50;99.90
20158;DHT22;10239;56.820;24.416;2024-01-16T08:52:05;-3.50;99.90
20158;DHT22;10239;56.820;24.416;2024-01-16T08:54:33;-3.50;99.90
20158;DHT22;10239;56.820;24.416;2024-01-16T08:57:00;-3.50;99.90
20158;DHT22;10239;56.820;24.416;2024-01-16T08:59:28;-3.50;99.90
20158;DHT22;10239;56.820;24.416;2024-01-16T09:01:56;-3.60;99.90
20158;DHT22;10239;56.820;24.416;2024-01-16T09:04:23;-3.50;99.90
20158;DHT22;10239;56.820;24.416;2024-01-16T09:06:50;-3.60;99.90
20158;DHT22;10239;56.820;24.416;2024-01-16T09:09:19;-3.60;99.90
20158;DHT22;10239;56.820;24.416;2024-01-16T09:11:48;-3.60;99.90
20158;DHT22;10239;56.820;24.416;2024-01-16T09:14:15;-3.50;99.90
20158;DHT22;10239;56.820;24.416;2024-01-16T09:16:43;-3.40;99.90
20158;DHT22;10239;56.820;24.416;2024-01-16T09:19:10;-3.40;99.90
20158;DHT22;10239;56.820;24.416;2024-01-16T09:21:38;-3.50;99.90
20158;DHT22;10239;56.820;24.416;2024-01-16T09:24:05;-3.40;99.90
20158;DHT22;10239;56.820;24.416;2024-01-16T09:26:33;-3.30;99.90
20158;DHT22;10239;56.820;24.416;2024-01-16T09:29:01;-3.40;99.90
20158;DHT22;10239;56.820;24.416;2024-01-16T09:31:28;-3.20;99.90
20158;DHT22;10239;56.820;24.416;2024-01-16T09:33:56;-3.20;99.90
20158;DHT22;10239;56.820;24.416;2024-01-16T09:36:24;-3.20;99.90
20158;DHT22;10239;56.820;24.416;2024-01-16T09:38:51;-3.30;99.90
20158;DHT22;10239;56.820;24.416;2024-01-16T09:41:19;-3.40;99.90
20158;DHT22;10239;56.820;24.416;2024-01-16T09:43:47;-3.40;99.90
20158;DHT22;10239;56.820;24.416;2024-01-16T09:46:17;-3.60;99.90
20158;DHT22;10239;56.820;24.416;2024-01-16T09:48:46;-3.70;99.90
20158;DHT22;10239;56.820;24.416;2024-01-16T09:51:14;-3.50;99.90
20158;DHT22;10239;56.820;24.416;2024-01-16T09:53:42;-3.60;99.90
20158;DHT22;10239;56.820;24.416;2024-01-16T09:56:17;-3.50;99.90
20158;DHT22;10239;56.820;24.416;2024-01-16T09:58:58;-3.40;99.90
20158;DHT22;10239;56.820;24.416;2024-01-16T10:01:27;-3.20;99.90
20158;DHT22;10239;56.820;24.416;2024-01-16T10:03:55;-3.10;99.90
20158;DHT22;10239;56.820;24.416;2024-01-16T10:06:24;-3.20;99.90
20158;DHT22;10239;56.820;24.416;2024-01-16T10:08:54;-3.40;99.90
20158;DHT22;10239;56.820;24.416;2024-01-16T10:11:22;-3.40;99.90
20158;DHT22;10239;56.820;24.416;2024-01-16T10:13:50;-3.50;99.90
20158;DHT22;10239;56.820;24.416;2024-01-16T10:16:18;-3.50;99.90
20158;DHT22;10239;56.820;24.416;2024-01-16T10:19:03;-3.40;99.90
20158;DHT22;10239;56.820;24.416;2024-01-16T10:21:32;-3.40;99.90
20158;DHT22;10239;56.820;24.416;2024-01-16T10:24:19;-3.30;99.90
20158;DHT22;10239;56.820;24.416;2024-01-16T10:27:00;-3.30;99.90
20158;DHT22;10239;56.820;24.416;2024-01-16T10:29:31;-3.30;99.90
20158;DHT22;10239;56.820;24.416;2024-01-16T10:32:13;-3.40;99.90
20158;DHT22;10239;56.820;24.416;2024-01-16T10:35:11;-3.40;99.90
20158;DHT22;10239;56.820;24.416;2024-01-16T10:37:47;-3.40;99.90
20158;DHT22;10239;56.820;24.416;2024-01-16T10:40:22;-3.50;99.90
20158;DHT22;10239;56.820;24.416;2024-01-16T10:42:59;-3.50;99.90
20158;DHT22;10239;56.820;24.416;2024-01-16T10:45:27;-3.60;99.90
20158;DHT22;10239;56.820;24.416;2024-01-16T10:48:02;-3.80;99.90
20158;DHT22;10239;56.820;24.416;2024-01-16T10:50:32;-3.80;99.90
20158;DHT22;10239;56.820;24.416;2024-01-16T10:53:04;-3.90;99.90
20158;DHT22;10239;56.820;24.416;2024-01-16T10:56:11;-3.90;99.90
20158;DHT22;10239;56.820;24.416;2024-01-16T10:58:32;-3.70;99.90
20158;DHT22;10239;56.820;24.416;2024-01-16T11:01:03;-3.70;99.90
20158;DHT22;10239;56.820;24.416;2024-01-16T11:03:40;-3.60;99.90
20158;DHT22;10239;56.820;24.416;2024-01-16T11:06:09;-3.50;99.90
20158;DHT22;10239;56.820;24.416;2024-01-16T11:08:37;-3.50;99.90
20158;DHT22;10239;56.820;24.416;2024-01-16T11:11:05;-3.60;99.90
20158;DHT22;10239;56.820;24.416;2024-01-16T11:13:36;-3.50;99.90
20158;DHT22;10239;56.820;24.416;2024-01-16T11:16:04;-3.60;99.90
20158;DHT22;10239;56.820;24.416;2024-01-16T11:18:33;-3.60;99.90
20158;DHT22;10239;56.820;24.416;2024-01-16T11:21:09;-3.50;99.90
20158;DHT22;10239;56.820;24.416;2024-01-16T11:23:44;-3.60;99.90
20158;DHT22;10239;56.820;24.416;2024-01-16T11:26:31;-3.50;99.90
20158;DHT22;10239;56.820;24.416;2024-01-16T11:31:56;-3.50;99.90
20158;DHT22;10239;56.820;24.416;2024-01-16T11:37:12;-3.70;99.90
20158;DHT22;10239;56.820;24.416;2024-01-16T11:39:40;-3.70;99.90
20158;DHT22;10239;56.820;24.416;2024-01-16T11:42:09;-3.70;99.90
20158;DHT22;10239;56.820;24.416;2024-01-16T11:44:45;-3.70;99.90
20158;DHT22;10239;56.820;24.416;2024-01-16T11:47:19;-3.90;99.90
20158;DHT22;10239;56.820;24.416;2024-01-16T11:49:50;-3.90;99.90
20158;DHT22;10239;56.820;24.416;2024-01-16T11:52:43;-3.90;99.90
20158;DHT22;10239;56.820;24.416;2024-01-16T11:56:07;-4.10;99.90
20158;DHT22;10239;56.820;24.416;2024-01-16T12:01:24;-3.90;99.90
20158;DHT22;10239;56.820;24.416;2024-01-16T12:04:06;-3.90;99.90
20158;DHT22;10239;56.820;24.416;2024-01-16T12:06:35;-4.00;99.90
20158;DHT22;10239;56.820;24.416;2024-01-16T12:09:17;-3.80;99.90
20158;DHT22;10239;56.820;24.416;2024-01-16T12:12:01;-3.70;99.90
20158;DHT22;10239;56.820;24.416;2024-01-16T12:14:34;-3.80;99.90
20158;DHT22;10239;56.820;24.416;2024-01-16T12:17:13;-3.80;99.90
20158;DHT22;10239;56.820;24.416;2024-01-16T12:19:41;-3.80;99.90
20158;DHT22;10239;56.820;24.416;2024-01-16T12:22:13;-3.90;99.90
20158;DHT22;10239;56.820;24.416;2024-01-16T12:24:41;-4.00;99.90
20158;DHT22;10239;56.820;24.416;2024-01-16T12:27:09;-4.00;99.90
20158;DHT22;10239;56.820;24.416;2024-01-16T12:29:37;-4.20;99.90
20158;DHT22;10239;56.820;24.416;2024-01-16T12:32:11;-4.30;99.90
20158;DHT22;10239;56.820;24.416;2024-01-16T12:34:47;-4.40;99.90
20158;DHT22;10239;56.820;24.416;2024-01-16T12:37:16;-4.50;99.90
20158;DHT22;10239;56.820;24.416;2024-01-16T12:39:44;-4.40;99.90
20158;DHT22;10239;56.820;24.416;2024-01-16T12:42:13;-4.40;99.90
20158;DHT22;10239;56.820;24.416;2024-01-16T12:44:41;-4.30;99.90
20158;DHT22;10239;56.820;24.416;2024-01-16T12:47:09;-4.20;99.90
20158;DHT22;10239;56.820;24.416;2024-01-16T12:49:41;-4.20;99.90
20158;DHT22;10239;56.820;24.416;2024-01-16T12:52:20;-4.10;99.90
20158;DHT22;10239;56.820;24.416;2024-01-16T12:54:56;-4.10;99.90
20158;DHT22;10239;56.820;24.416;2024-01-16T12:57:26;-4.20;99.90
20158;DHT22;10239;56.820;24.416;2024-01-16T12:59:54;-4.00;99.90
20158;DHT22;10239;56.820;24.416;2024-01-16T13:02:24;-4.10;99.90
20158;DHT22;10239;56.820;24.416;2024-01-16T13:04:57;-4.00;99.90
20158;DHT22;10239;56.820;24.416;2024-01-16T13:07:26;-3.90;99.90
20158;DHT22;10239;56.820;24.416;2024-01-16T13:12:36;-3.90;99.90
20158;DHT22;10239;56.820;24.416;2024-01-16T13:15:05;-3.80;99.90
20158;DHT22;10239;56.820;24.416;2024-01-16T13:17:33;-3.90;99.90
20158;DHT22;10239;56.820;24.416;2024-01-16T13:20:06;-4.00;99.90
20158;DHT22;10239;56.820;24.416;2024-01-16T13:22:37;-4.00;99.90
20158;DHT22;10239;56.820;24.416;2024-01-16T13:25:13;-4.00;99.90
20158;DHT22;10239;56.820;24.416;2024-01-16T13:27:41;-4.20;99.90
20158;DHT22;10239;56.820;24.416;2024-01-16T13:30:17;-4.30;99.90
20158;DHT22;10239;56.820;24.416;2024-01-16T13:32:47;-4.30;99.90
20158;DHT22;10239;56.820;24.416;2024-01-16T13:35:15;-4.40;99.90
20158;DHT22;10239;56.820;24.416;2024-01-16T13:37:43;-4.40;99.90
20158;DHT22;10239;56.820;24.416;2024-01-16T13:40:10;-4.30;99.90
20158;DHT22;10239;56.820;24.416;2024-01-16T13:42:43;-4.30;99.90
20158;DHT22;10239;56.820;24.416;2024-01-16T13:45:10;-4.40;99.90
20158;DHT22;10239;56.820;24.416;2024-01-16T13:47:41;-4.30;99.90
20158;DHT22;10239;56.820;24.416;2024-01-16T13:50:09;-4.40;99.90
20158;DHT22;10239;56.820;24.416;2024-01-16T13:52:37;-4.30;99.90
20158;DHT22;10239;56.820;24.416;2024-01-16T13:55:05;-4.40;99.90
20158;DHT22;10239;56.820;24.416;2024-01-16T13:57:33;-4.50;99.90
20158;DHT22;10239;56.820;24.416;2024-01-16T14:00:05;-4.40;99.90
20158;DHT22;10239;56.820;24.416;2024-01-16T14:02:45;-4.50;99.90
20158;DHT22;10239;56.820;24.416;2024-01-16T14:05:14;-4.60;99.90
20158;DHT22;10239;56.820;24.416;2024-01-16T14:07:51;-4.70;99.90
20158;DHT22;10239;56.820;24.416;2024-01-16T14:10:21;-4.60;99.90
20158;DHT22;10239;56.820;24.416;2024-01-16T14:12:50;-4.70;99.90
20158;DHT22;10239;56.820;24.416;2024-01-16T14:15:20;-4.80;99.90
20158;DHT22;10239;56.820;24.416;2024-01-16T14:17:54;-4.90;99.90
20158;DHT22;10239;56.820;24.416;2024-01-16T14:20:24;-4.80;99.90
20158;DHT22;10239;56.820;24.416;2024-01-16T14:22:58;-4.70;99.90
20158;DHT22;10239;56.820;24.416;2024-01-16T14:25:27;-4.80;99.90
20158;DHT22;10239;56.820;24.416;2024-01-16T14:28:03;-4.90;99.90
20158;DHT22;10239;56.820;24.416;2024-01-16T14:30:34;-5.00;99.90
20158;DHT22;10239;56.820;24.416;2024-01-16T14:33:03;-4.90;99.90
20158;DHT22;10239;56.820;24.416;2024-01-16T14:35:30;-5.00;99.90
20158;DHT22;10239;56.820;24.416;2024-01-16T14:37:58;-5.00;99.90
20158;DHT22;10239;56.820;24.416;2024-01-16T14:40:26;-4.90;99.90
20158;DHT22;10239;56.820;24.416;2024-01-16T14:42:55;-4.90;99.90
20158;DHT22;10239;56.820;24.416;2024-01-16T14:45:27;-5.00;99.90
20158;DHT22;10239;56.820;24.416;2024-01-16T14:47:55;-4.90;99.90
20158;DHT22;10239;56.820;24.416;2024-01-16T14:50:23;-4.90;99.90
20158;DHT22;10239;56.820;24.416;2024-01-16T14:52:52;-4.90;99.90
20158;DHT22;10239;56.820;24.416;2024-01-16T14:55:20;-5.00;99.90
20158;DHT22;10239;56.820;24.416;2024-01-16T14:57:48;-4.90;99.90
20158;DHT22;10239;56.820;24.416;2024-01-16T15:00:20;-5.00;99.90
20158;DHT22;10239;56.820;24.416;2024-01-16T15:02:50;-5.00;99.90
20158;DHT22;10239;56.820;24.416;2024-01-16T15:05:19;-5.10;99.90
20158;DHT22;10239;56.820;24.416;2024-01-16T15:07:48;-5.10;99.90
20158;DHT22;10239;56.820;24.416;2024-01-16T15:10:16;-5.00;99.90
20158;DHT22;10239;56.820;24.416;2024-01-16T15:12:45;-5.00;99.90
20158;DHT22;10239;56.820;24.416;2024-01-16T15:15:14;-5.00;99.90
20158;DHT22;10239;56.820;24.416;2024-01-16T15:17:43;-5.00;99.90
20158;DHT22;10239;56.820;24.416;2024-01-16T15:20:11;-4.90;99.90
20158;DHT22;10239;56.820;24.416;2024-01-16T15:22:44;-4.90;99.90
20158;DHT22;10239;56.820;24.416;2024-01-16T15:25:13;-5.00;99.90
20158;DHT22;10239;56.820;24.416;2024-01-16T15:27:43;-5.10;99.90
20158;DHT22;10239;56.820;24.416;2024-01-16T15:30:13;-5.00;99.90
20158;DHT22;10239;56.820;24.416;2024-01-16T15:32:41;-5.00;99.90
20158;DHT22;10239;56.820;24.416;2024-01-16T15:35:09;-4.90;99.90
20158;DHT22;10239;56.820;24.416;2024-01-16T15:37:38;-4.90;99.90
20158;DHT22;10239;56.820;24.416;2024-01-16T15:40:06;-5.00;99.90